sensor_id;sensor_type;location;lat;lon;timestamp;P1;durP1;ratioP1;P2;durP2;ratioP2
15486;SDS011;7845;53.698;10.078;2023-09-07T14:39:44;5.00;;;3.30;;
15486;SDS011;7845;53.698;10.078;2023-09-07T14:42:12;5.50;;;3.60;;
15486;SDS011;7845;53.698;10.078;2023-09-07T14:44:41;5.30;;;3.47;;
15486;SDS011;7845;53.698;10.078;2023-09-07T14:47:06;6.07;;;3.43;;
15486;SDS011;7845;53.698;10.078;2023-09-07T14:49:32;5.87;;;3.30;;
15486;SDS011;7845;53.698;10.078;2023-09-07T14:51:58;5.73;;;3.60;;
15486;SDS011;7845;53.698;10.078;2023-09-07T14:55:11;5.43;;;3.60;;
15486;SDS011;7845;53.698;10.078;2023-09-07T14:58:03;4.87;;;3.40;;
15486;SDS011;7845;53.698;10.078;2023-09-07T15:00:55;5.93;;;3.17;;
15486;SDS011;7845;53.698;10.078;2023-09-07T15:03:48;5.13;;;3.47;;
15486;SDS011;7845;53.698;10.078;2023-09-07T15:06:39;7.30;;;3.40;;
15486;SDS011;7845;53.698;10.078;2023-09-07T15:09:53;5.30;;;3.60;;
15486;SDS011;7845;53.698;10.078;2023-09-07T15:12:44;7.33;;;3.20;;
15486;SDS011;7845;53.698;10.078;2023-09-07T15:15:34;5.40;;;3.70;;
15486;SDS011;7845;53.698;10.078;2023-09-07T15:18:30;5.40;;;3.50;;
15486;SDS011;7845;53.698;10.078;2023-09-07T15:21:22;5.90;;;3.50;;
15486;SDS011;7845;53.698;10.078;2023-09-07T15:24:13;6.80;;;3.70;;
15486;SDS011;7845;53.698;10.078;2023-09-07T15:27:07;5.40;;;3.47;;
15486;SDS011;7845;53.698;10.078;2023-09-07T15:29:58;5.17;;;3.30;;
15486;SDS011;7845;53.698;10.078;2023-09-07T15:32:49;5.00;;;3.60;;
15486;SDS011;7845;53.698;10.078;2023-09-07T15:35:40;4.50;;;3.13;;
15486;SDS011;7845;53.698;10.078;2023-09-07T15:38:32;5.77;;;3.50;;
15486;SDS011;7845;53.698;10.078;2023-09-07T15:41:22;6.60;;;3.70;;
15486;SDS011;7845;53.698;10.078;2023-09-07T15:45:31;4.83;;;3.20;;
15486;SDS011;7845;53.698;10.078;2023-09-07T15:48:22;11.90;;;4.57;;
15486;SDS011;7845;53.698;10.078;2023-09-07T15:51:13;5.10;;;3.60;;
15486;SDS011;7845;53.698;10.078;2023-09-07T15:54:04;6.60;;;3.40;;
15486;SDS011;7845;53.698;10.078;2023-09-07T15:56:55;4.93;;;3.70;;
15486;SDS011;7845;53.698;10.078;2023-09-07T15:59:46;4.50;;;3.37;;
15486;SDS011;7845;53.698;10.078;2023-09-07T16:02:36;4.77;;;3.67;;
15486;SDS011;7845;53.698;10.078;2023-09-07T16:05:27;5.80;;;3.47;;
15486;SDS011;7845;53.698;10.078;2023-09-07T16:08:17;5.67;;;3.20;;
15486;SDS011;7845;53.698;10.078;2023-09-07T16:11:07;5.70;;;3.30;;
15486;SDS011;7845;53.698;10.078;2023-09-07T16:13:57;5.70;;;3.43;;
15486;SDS011;7845;53.698;10.078;2023-09-07T16:16:50;8.47;;;4.23;;
15486;SDS011;7845;53.698;10.078;2023-09-07T16:19:41;5.23;;;3.00;;
15486;SDS011;7845;53.698;10.078;2023-09-07T16:22:32;5.70;;;3.70;;
15486;SDS011;7845;53.698;10.078;2023-09-07T16:26:15;9.60;;;3.47;;
15486;SDS011;7845;53.698;10.078;2023-09-07T16:28:40;5.93;;;3.77;;
15486;SDS011;7845;53.698;10.078;2023-09-07T16:31:06;11.20;;;4.70;;
15486;SDS011;7845;53.698;10.078;2023-09-07T16:33:31;10.43;;;3.83;;
15486;SDS011;7845;53.698;10.078;2023-09-07T16:35:56;10.53;;;3.90;;
15486;SDS011;7845;53.698;10.078;2023-09-07T16:38:22;9.17;;;3.90;;
15486;SDS011;7845;53.698;10.078;2023-09-07T16:40:49;7.47;;;3.87;;
15486;SDS011;7845;53.698;10.078;2023-09-07T16:43:14;6.80;;;3.57;;
15486;SDS011;7845;53.698;10.078;2023-09-07T16:45:39;6.17;;;3.60;;
15486;SDS011;7845;53.698;10.078;2023-09-07T16:48:05;11.10;;;4.00;;
15486;SDS011;7845;53.698;10.078;2023-09-07T16:50:30;15.80;;;3.70;;
15486;SDS011;7845;53.698;10.078;2023-09-07T16:52:56;8.67;;;3.90;;
15486;SDS011;7845;53.698;10.078;2023-09-07T16:55:23;6.33;;;3.17;;
15486;SDS011;7845;53.698;10.078;2023-09-07T16:57:48;7.53;;;4.23;;
15486;SDS011;7845;53.698;10.078;2023-09-07T17:00:13;6.60;;;3.17;;
15486;SDS011;7845;53.698;10.078;2023-09-07T17:02:39;11.20;;;4.90;;
15486;SDS011;7845;53.698;10.078;2023-09-07T17:05:05;4.70;;;3.47;;
15486;SDS011;7845;53.698;10.078;2023-09-07T17:07:34;7.03;;;4.03;;
15486;SDS011;7845;53.698;10.078;2023-09-07T17:10:00;8.20;;;3.97;;
15486;SDS011;7845;53.698;10.078;2023-09-07T17:12:26;6.57;;;3.60;;
15486;SDS011;7845;53.698;10.078;2023-09-07T17:14:51;5.93;;;3.07;;
15486;SDS011;7845;53.698;10.078;2023-09-07T17:17:16;10.67;;;4.40;;
15486;SDS011;7845;53.698;10.078;2023-09-07T17:19:41;6.90;;;3.97;;
15486;SDS011;7845;53.698;10.078;2023-09-07T17:22:07;8.03;;;4.27;;
15486;SDS011;7845;53.698;10.078;2023-09-07T17:24:32;5.10;;;3.60;;
15486;SDS011;7845;53.698;10.078;2023-09-07T17:26:57;6.00;;;4.47;;
15486;SDS011;7845;53.698;10.078;2023-09-07T17:29:22;6.13;;;4.60;;
15486;SDS011;7845;53.698;10.078;2023-09-07T17:31:48;10.23;;;4.80;;
15486;SDS011;7845;53.698;10.078;2023-09-07T17:34:13;18.33;;;6.17;;
15486;SDS011;7845;53.698;10.078;2023-09-07T17:36:40;6.37;;;5.47;;
15486;SDS011;7845;53.698;10.078;2023-09-07T17:39:07;7.80;;;5.97;;
15486;SDS011;7845;53.698;10.078;2023-09-07T17:41:32;8.20;;;6.20;;
15486;SDS011;7845;53.698;10.078;2023-09-07T17:43:59;8.43;;;6.37;;
15486;SDS011;7845;53.698;10.078;2023-09-07T17:46:25;7.10;;;6.00;;
15486;SDS011;7845;53.698;10.078;2023-09-07T17:48:50;10.73;;;7.40;;
15486;SDS011;7845;53.698;10.078;2023-09-07T17:51:16;13.60;;;7.00;;
15486;SDS011;7845;53.698;10.078;2023-09-07T17:53:42;9.90;;;7.40;;
15486;SDS011;7845;53.698;10.078;2023-09-07T17:56:08;9.17;;;6.90;;
15486;SDS011;7845;53.698;10.078;2023-09-07T17:58:37;8.30;;;7.00;;
15486;SDS011;7845;53.698;10.078;2023-09-07T18:01:03;9.10;;;6.73;;
15486;SDS011;7845;53.698;10.078;2023-09-07T18:03:29;8.73;;;6.50;;
15486;SDS011;7845;53.698;10.078;2023-09-07T18:05:55;9.47;;;7.20;;
15486;SDS011;7845;53.698;10.078;2023-09-07T18:08:22;9.53;;;7.50;;
15486;SDS011;7845;53.698;10.078;2023-09-07T18:10:49;9.95;;;8.95;;
15486;SDS011;7845;53.698;10.078;2023-09-07T18:13:14;12.23;;;8.93;;
15486;SDS011;7845;53.698;10.078;2023-09-07T18:15:41;10.40;;;7.97;;
15486;SDS011;7845;53.698;10.078;2023-09-07T18:18:07;10.37;;;7.63;;
15486;SDS011;7845;53.698;10.078;2023-09-07T18:20:32;11.03;;;8.40;;
15486;SDS011;7845;53.698;10.078;2023-09-07T18:22:57;13.73;;;8.47;;
15486;SDS011;7845;53.698;10.078;2023-09-07T18:25:24;12.17;;;8.90;;
15486;SDS011;7845;53.698;10.078;2023-09-07T18:27:49;14.20;;;8.73;;
15486;SDS011;7845;53.698;10.078;2023-09-07T18:30:15;9.70;;;7.70;;
15486;SDS011;7845;53.698;10.078;2023-09-07T18:32:41;11.00;;;9.20;;
15486;SDS011;7845;53.698;10.078;2023-09-07T18:35:07;11.87;;;8.57;;
15486;SDS011;7845;53.698;10.078;2023-09-07T18:37:33;16.47;;;9.90;;
15486;SDS011;7845;53.698;10.078;2023-09-07T18:39:59;11.20;;;8.37;;
15486;SDS011;7845;53.698;10.078;2023-09-07T18:42:24;14.07;;;8.97;;
15486;SDS011;7845;53.698;10.078;2023-09-07T18:44:50;12.17;;;9.17;;
15486;SDS011;7845;53.698;10.078;2023-09-07T18:47:16;10.90;;;9.60;;
15486;SDS011;7845;53.698;10.078;2023-09-07T18:49:42;13.63;;;9.87;;
15486;SDS011;7845;53.698;10.078;2023-09-07T18:52:08;14.13;;;9.97;;
15486;SDS011;7845;53.698;10.078;2023-09-07T18:54:34;10.73;;;8.83;;
15486;SDS011;7845;53.698;10.078;2023-09-07T18:57:01;10.87;;;9.20;;
15486;SDS011;7845;53.698;10.078;2023-09-07T18:59:27;11.87;;;10.63;;
15486;SDS011;7845;53.698;10.078;2023-09-07T19:01:58;13.23;;;8.90;;
15486;SDS011;7845;53.698;10.078;2023-09-07T19:04:23;12.03;;;8.93;;
15486;SDS011;7845;53.698;10.078;2023-09-07T19:06:53;12.43;;;9.30;;
15486;SDS011;7845;53.698;10.078;2023-09-07T19:09:18;10.87;;;9.77;;
15486;SDS011;7845;53.698;10.078;2023-09-07T19:11:44;13.27;;;10.30;;
15486;SDS011;7845;53.698;10.078;2023-09-07T19:14:10;10.27;;;9.23;;
15486;SDS011;7845;53.698;10.078;2023-09-07T19:16:35;12.20;;;9.63;;
15486;SDS011;7845;53.698;10.078;2023-09-07T19:19:01;11.77;;;9.43;;
15486;SDS011;7845;53.698;10.078;2023-09-07T19:21:26;14.63;;;9.70;;
15486;SDS011;7845;53.698;10.078;2023-09-07T19:23:52;14.10;;;10.13;;
15486;SDS011;7845;53.698;10.078;2023-09-07T19:26:27;11.10;;;9.50;;
15486;SDS011;7845;53.698;10.078;2023-09-07T19:28:54;10.47;;;9.37;;
15486;SDS011;7845;53.698;10.078;2023-09-07T19:31:20;13.20;;;10.10;;
15486;SDS011;7845;53.698;10.078;2023-09-07T19:33:48;11.70;;;9.40;;
15486;SDS011;7845;53.698;10.078;2023-09-07T19:36:19;11.20;;;9.53;;
15486;SDS011;7845;53.698;10.078;2023-09-07T19:38:45;12.50;;;10.63;;
15486;SDS011;7845;53.698;10.078;2023-09-07T19:41:11;12.20;;;10.73;;
15486;SDS011;7845;53.698;10.078;2023-09-07T19:43:36;11.13;;;9.97;;
15486;SDS011;7845;53.698;10.078;2023-09-07T19:46:02;12.03;;;9.80;;
15486;SDS011;7845;53.698;10.078;2023-09-07T19:48:27;11.47;;;10.20;;
15486;SDS011;7845;53.698;10.078;2023-09-07T19:50:53;13.80;;;10.97;;
15486;SDS011;7845;53.698;10.078;2023-09-07T19:53:18;12.97;;;11.67;;
15486;SDS011;7845;53.698;10.078;2023-09-07T19:55:43;13.50;;;10.00;;
15486;SDS011;7845;53.698;10.078;2023-09-07T19:58:09;11.83;;;9.80;;
15486;SDS011;7845;53.698;10.078;2023-09-07T20:00:35;15.07;;;10.97;;
15486;SDS011;7845;53.698;10.078;2023-09-07T20:03:02;15.17;;;10.60;;
15486;SDS011;7845;53.698;10.078;2023-09-07T20:05:27;14.10;;;11.03;;
15486;SDS011;7845;53.698;10.078;2023-09-07T20:07:53;13.77;;;11.00;;
15486;SDS011;7845;53.698;10.078;2023-09-07T20:10:19;12.80;;;9.80;;
15486;SDS011;7845;53.698;10.078;2023-09-07T20:12:46;12.70;;;11.40;;
15486;SDS011;7845;53.698;10.078;2023-09-07T20:15:11;11.93;;;10.70;;
15486;SDS011;7845;53.698;10.078;2023-09-07T20:17:39;12.77;;;11.23;;
15486;SDS011;7845;53.698;10.078;2023-09-07T20:20:06;17.00;;;11.50;;
15486;SDS011;7845;53.698;10.078;2023-09-07T20:22:33;16.63;;;11.23;;
15486;SDS011;7845;53.698;10.078;2023-09-07T20:25:00;15.27;;;10.90;;
15486;SDS011;7845;53.698;10.078;2023-09-07T20:27:26;12.40;;;11.10;;
15486;SDS011;7845;53.698;10.078;2023-09-07T20:29:51;12.77;;;10.70;;
15486;SDS011;7845;53.698;10.078;2023-09-07T20:32:17;15.40;;;11.83;;
15486;SDS011;7845;53.698;10.078;2023-09-07T20:34:42;11.67;;;10.40;;
15486;SDS011;7845;53.698;10.078;2023-09-07T20:37:08;18.77;;;13.33;;
15486;SDS011;7845;53.698;10.078;2023-09-07T20:39:34;14.33;;;11.33;;
15486;SDS011;7845;53.698;10.078;2023-09-07T20:42:00;11.60;;;10.40;;
15486;SDS011;7845;53.698;10.078;2023-09-07T20:44:26;16.07;;;11.50;;
15486;SDS011;7845;53.698;10.078;2023-09-07T20:46:51;15.10;;;13.37;;
15486;SDS011;7845;53.698;10.078;2023-09-07T20:49:16;18.10;;;14.07;;
15486;SDS011;7845;53.698;10.078;2023-09-07T20:51:41;13.63;;;11.70;;
15486;SDS011;7845;53.698;10.078;2023-09-07T20:54:07;16.10;;;12.07;;
15486;SDS011;7845;53.698;10.078;2023-09-07T20:56:34;13.30;;;11.90;;
15486;SDS011;7845;53.698;10.078;2023-09-07T20:58:59;12.90;;;11.00;;
15486;SDS011;7845;53.698;10.078;2023-09-07T21:01:25;15.97;;;12.30;;
15486;SDS011;7845;53.698;10.078;2023-09-07T21:03:50;14.10;;;11.47;;
15486;SDS011;7845;53.698;10.078;2023-09-07T21:06:16;16.30;;;12.13;;
15486;SDS011;7845;53.698;10.078;2023-09-07T21:08:41;13.93;;;12.37;;
15486;SDS011;7845;53.698;10.078;2023-09-07T21:11:06;14.40;;;11.83;;
15486;SDS011;7845;53.698;10.078;2023-09-07T21:13:31;13.47;;;11.77;;
15486;SDS011;7845;53.698;10.078;2023-09-07T21:15:57;12.67;;;11.30;;
15486;SDS011;7845;53.698;10.078;2023-09-07T21:18:22;13.00;;;10.63;;
15486;SDS011;7845;53.698;10.078;2023-09-07T21:20:48;16.87;;;12.33;;
15486;SDS011;7845;53.698;10.078;2023-09-07T21:23:13;13.60;;;12.17;;
15486;SDS011;7845;53.698;10.078;2023-09-07T21:25:39;14.70;;;12.53;;
15486;SDS011;7845;53.698;10.078;2023-09-07T21:28:04;13.53;;;11.83;;
15486;SDS011;7845;53.698;10.078;2023-09-07T21:30:30;13.13;;;11.73;;
15486;SDS011;7845;53.698;10.078;2023-09-07T21:32:56;13.33;;;11.50;;
15486;SDS011;7845;53.698;10.078;2023-09-07T21:35:22;17.10;;;12.57;;
15486;SDS011;7845;53.698;10.078;2023-09-07T21:37:47;14.77;;;13.13;;
15486;SDS011;7845;53.698;10.078;2023-09-07T21:40:13;12.37;;;11.17;;
15486;SDS011;7845;53.698;10.078;2023-09-07T21:42:38;13.83;;;11.30;;
15486;SDS011;7845;53.698;10.078;2023-09-07T21:45:03;13.00;;;11.43;;
15486;SDS011;7845;53.698;10.078;2023-09-07T21:47:30;11.33;;;10.13;;
15486;SDS011;7845;53.698;10.078;2023-09-07T21:49:56;13.73;;;12.33;;
15486;SDS011;7845;53.698;10.078;2023-09-07T21:52:22;14.03;;;10.97;;
15486;SDS011;7845;53.698;10.078;2023-09-07T21:54:48;13.60;;;12.07;;
15486;SDS011;7845;53.698;10.078;2023-09-07T21:57:14;12.50;;;10.43;;
15486;SDS011;7845;53.698;10.078;2023-09-07T21:59:39;13.67;;;11.30;;
15486;SDS011;7845;53.698;10.078;2023-09-07T22:02:04;13.77;;;11.77;;
15486;SDS011;7845;53.698;10.078;2023-09-07T22:04:30;13.83;;;11.10;;
15486;SDS011;7845;53.698;10.078;2023-09-07T22:06:55;15.10;;;12.40;;
15486;SDS011;7845;53.698;10.078;2023-09-07T22:09:21;15.83;;;12.33;;
15486;SDS011;7845;53.698;10.078;2023-09-07T22:11:46;17.40;;;11.93;;
15486;SDS011;7845;53.698;10.078;2023-09-07T22:14:11;16.40;;;11.50;;
15486;SDS011;7845;53.698;10.078;2023-09-07T22:16:36;14.63;;;12.90;;
15486;SDS011;7845;53.698;10.078;2023-09-07T22:19:02;12.60;;;11.00;;
15486;SDS011;7845;53.698;10.078;2023-09-07T22:21:29;14.00;;;12.30;;
15486;SDS011;7845;53.698;10.078;2023-09-07T22:23:54;12.87;;;10.40;;
15486;SDS011;7845;53.698;10.078;2023-09-07T22:26:19;14.00;;;11.23;;
15486;SDS011;7845;53.698;10.078;2023-09-07T22:28:45;12.67;;;11.37;;
15486;SDS011;7845;53.698;10.078;2023-09-07T22:31:11;13.00;;;11.20;;
15486;SDS011;7845;53.698;10.078;2023-09-07T22:33:36;13.50;;;10.10;;
15486;SDS011;7845;53.698;10.078;2023-09-07T22:36:02;11.40;;;10.20;;
15486;SDS011;7845;53.698;10.078;2023-09-07T22:38:28;13.13;;;11.50;;
15486;SDS011;7845;53.698;10.078;2023-09-07T22:40:55;13.03;;;11.30;;
15486;SDS011;7845;53.698;10.078;2023-09-07T22:43:22;13.23;;;10.83;;
15486;SDS011;7845;53.698;10.078;2023-09-07T22:45:48;12.90;;;11.23;;
15486;SDS011;7845;53.698;10.078;2023-09-07T22:48:13;14.70;;;11.63;;
15486;SDS011;7845;53.698;10.078;2023-09-07T22:50:38;14.60;;;10.97;;
15486;SDS011;7845;53.698;10.078;2023-09-07T22:53:05;14.83;;;12.37;;
15486;SDS011;7845;53.698;10.078;2023-09-07T22:55:43;12.80;;;11.50;;
15486;SDS011;7845;53.698;10.078;2023-09-07T22:58:13;12.73;;;10.97;;
15486;SDS011;7845;53.698;10.078;2023-09-07T23:00:40;11.63;;;10.43;;
15486;SDS011;7845;53.698;10.078;2023-09-07T23:03:07;14.57;;;13.03;;
15486;SDS011;7845;53.698;10.078;2023-09-07T23:05:33;12.23;;;10.97;;
15486;SDS011;7845;53.698;10.078;2023-09-07T23:08:00;13.30;;;11.90;;
15486;SDS011;7845;53.698;10.078;2023-09-07T23:10:26;13.70;;;11.87;;
15486;SDS011;7845;53.698;10.078;2023-09-07T23:12:53;12.70;;;11.50;;
15486;SDS011;7845;53.698;10.078;2023-09-07T23:15:18;11.70;;;10.50;;
15486;SDS011;7845;53.698;10.078;2023-09-07T23:17:44;12.93;;;11.63;;
15486;SDS011;7845;53.698;10.078;2023-09-07T23:20:16;11.57;;;8.80;;
15486;SDS011;7845;53.698;10.078;2023-09-07T23:22:41;13.67;;;11.10;;
15486;SDS011;7845;53.698;10.078;2023-09-07T23:25:07;11.50;;;10.27;;
15486;SDS011;7845;53.698;10.078;2023-09-07T23:27:33;11.57;;;9.60;;
15486;SDS011;7845;53.698;10.078;2023-09-07T23:30:00;12.10;;;9.40;;
15486;SDS011;7845;53.698;10.078;2023-09-07T23:32:26;14.40;;;11.20;;
15486;SDS011;7845;53.698;10.078;2023-09-07T23:34:51;10.93;;;9.83;;
15486;SDS011;7845;53.698;10.078;2023-09-07T23:37:16;11.30;;;9.97;;
15486;SDS011;7845;53.698;10.078;2023-09-07T23:39:42;12.50;;;8.90;;
15486;SDS011;7845;53.698;10.078;2023-09-07T23:42:07;10.23;;;8.83;;
15486;SDS011;7845;53.698;10.078;2023-09-07T23:44:33;10.80;;;9.70;;
15486;SDS011;7845;53.698;10.078;2023-09-07T23:46:58;11.17;;;9.27;;
15486;SDS011;7845;53.698;10.078;2023-09-07T23:49:25;11.60;;;8.23;;
15486;SDS011;7845;53.698;10.078;2023-09-07T23:51:51;12.33;;;9.40;;
15486;SDS011;7845;53.698;10.078;2023-09-07T23:54:17;11.23;;;8.67;;
15486;SDS011;7845;53.698;10.078;2023-09-07T23:56:43;10.00;;;8.50;;
15486;SDS011;7845;53.698;10.078;2023-09-07T23:59:09;9.70;;;8.10;;
